createdAt,value
2022-10-19T00:01:07.446Z,51.00
2022-10-19T00:03:35.431Z,51.13
2022-10-19T00:06:10.421Z,51.42
2022-10-19T00:08:36.833Z,51.46
2022-10-19T00:11:03.300Z,51.26
2022-10-19T00:13:29.737Z,51.04
2022-10-19T00:15:56.136Z,51.41
2022-10-19T00:18:22.544Z,51.09
2022-10-19T00:20:48.968Z,51.46
2022-10-19T00:23:15.413Z,51.51
2022-10-19T00:25:41.780Z,51.25
2022-10-19T00:28:08.221Z,51.52
2022-10-19T00:30:38.422Z,50.79
2022-10-19T00:33:04.960Z,51.28
2022-10-19T00:35:31.352Z,51.42
2022-10-19T00:37:57.768Z,51.04
2022-10-19T00:40:24.205Z,51.38
2022-10-19T00:42:54.432Z,51.41
2022-10-19T00:45:20.856Z,51.50
2022-10-19T00:47:47.373Z,51.33
2022-10-19T00:50:14.877Z,51.17
2022-10-19T00:52:41.554Z,51.02
2022-10-19T00:55:08.567Z,51.12
2022-10-19T00:57:35.201Z,50.89
2022-10-19T01:00:03.460Z,50.80
2022-10-19T01:02:29.845Z,50.79
2022-10-19T01:04:56.265Z,50.92
2022-10-19T01:07:24.046Z,51.02
2022-10-19T01:09:50.806Z,51.02
2022-10-19T01:12:25.761Z,50.89
2022-10-19T01:15:08.781Z,50.98
2022-10-19T01:17:56.762Z,51.30
2022-10-19T01:20:41.721Z,50.97
2022-10-19T01:23:43.585Z,51.10
2022-10-19T01:26:19.017Z,51.05
2022-10-19T01:28:54.479Z,51.35
2022-10-19T01:31:27.594Z,51.68
2022-10-19T01:34:12.429Z,51.68
2022-10-19T01:36:41.897Z,51.21
2022-10-19T01:39:11.244Z,51.50
2022-10-19T01:41:47.890Z,51.28
2022-10-19T01:44:20.434Z,51.43
2022-10-19T01:46:52.791Z,51.31
2022-10-19T01:49:45.369Z,50.81
2022-10-19T01:52:15.090Z,50.75
2022-10-19T01:54:45.143Z,50.25
2022-10-19T01:57:13.125Z,50.66
2022-10-19T01:59:40.021Z,50.62
2022-10-19T02:02:09.511Z,50.75
2022-10-19T02:04:37.300Z,50.87
2022-10-19T02:07:04.458Z,51.47
2022-10-19T02:09:30.811Z,50.93
2022-10-19T02:11:59.359Z,51.29
2022-10-19T02:14:29.406Z,51.48
2022-10-19T02:17:01.984Z,52.27
2022-10-19T02:19:28.348Z,51.96
2022-10-19T02:21:56.361Z,52.27
2022-10-19T02:24:22.679Z,52.36
2022-10-19T02:26:49.188Z,51.89
2022-10-19T02:29:16.214Z,51.68
2022-10-19T02:31:43.039Z,51.59
2022-10-19T02:34:10.219Z,51.87
2022-10-19T02:36:36.583Z,51.87
2022-10-19T02:39:03.333Z,52.14
2022-10-19T02:41:34.247Z,51.95
2022-10-19T02:44:05.849Z,51.89
2022-10-19T02:46:37.568Z,52.03
2022-10-19T02:49:04.571Z,52.18
2022-10-19T02:51:32.851Z,52.05
2022-10-19T02:54:01.246Z,52.56
2022-10-19T02:56:30.627Z,52.11
2022-10-19T02:58:57.000Z,52.51
2022-10-19T03:01:23.428Z,52.54
2022-10-19T03:03:49.819Z,52.44
2022-10-19T03:06:16.197Z,52.01
2022-10-19T03:08:42.552Z,52.04
2022-10-19T03:11:08.961Z,51.91
2022-10-19T03:13:35.348Z,52.27
2022-10-19T03:16:08.604Z,51.95
2022-10-19T03:18:34.972Z,51.82
2022-10-19T03:21:02.208Z,51.77
2022-10-19T03:23:29.385Z,52.16
2022-10-19T03:25:55.739Z,52.22
2022-10-19T03:28:22.092Z,52.32
2022-10-19T03:30:48.413Z,52.20
2022-10-19T03:33:15.122Z,52.55
2022-10-19T03:35:41.533Z,52.54
2022-10-19T03:38:07.884Z,52.28
2022-10-19T03:40:34.303Z,52.16
2022-10-19T03:43:00.641Z,52.51
2022-10-19T03:45:27.004Z,52.90
2022-10-19T03:47:53.321Z,53.39
2022-10-19T03:50:21.195Z,53.51
2022-10-19T03:52:49.604Z,53.44
2022-10-19T03:55:16.633Z,53.27
2022-10-19T03:57:42.994Z,53.70
2022-10-19T04:00:10.321Z,53.62
2022-10-19T04:02:36.673Z,53.68
2022-10-19T04:05:03.086Z,53.97
2022-10-19T04:07:29.481Z,53.86
2022-10-19T04:09:55.862Z,53.62
2022-10-19T04:12:22.213Z,53.23
2022-10-19T04:14:58.135Z,53.37
2022-10-19T04:17:25.052Z,53.49
2022-10-19T04:19:51.401Z,53.44
2022-10-19T04:22:17.754Z,52.95
2022-10-19T04:24:44.105Z,53.01
2022-10-19T04:27:10.482Z,52.84
2022-10-19T04:29:36.822Z,53.09
2022-10-19T04:32:03.178Z,52.77
2022-10-19T04:34:29.578Z,52.53
2022-10-19T04:36:59.202Z,52.79
2022-10-19T04:39:25.571Z,52.24
2022-10-19T04:41:51.994Z,52.31
2022-10-19T04:44:18.426Z,52.22
2022-10-19T04:46:44.822Z,51.94
2022-10-19T04:49:11.323Z,51.71
2022-10-19T04:51:38.054Z,51.55
2022-10-19T04:54:04.809Z,51.45
2022-10-19T04:56:32.467Z,51.64
2022-10-19T04:59:02.014Z,51.08
2022-10-19T05:01:29.328Z,51.16
2022-10-19T05:06:42.791Z,51.06
2022-10-19T05:09:09.255Z,50.59
2022-10-19T05:11:35.678Z,50.95
2022-10-19T05:14:02.086Z,50.56
2022-10-19T05:16:28.598Z,50.83
2022-10-19T05:18:59.632Z,50.53
2022-10-19T05:21:27.650Z,50.43
2022-10-19T05:23:54.810Z,50.36
2022-10-19T05:26:22.951Z,50.17
2022-10-19T05:28:56.707Z,49.85
2022-10-19T05:31:24.738Z,49.81
2022-10-19T05:33:51.310Z,49.57
2022-10-19T05:36:27.597Z,49.39
2022-10-19T05:38:55.043Z,49.08
2022-10-19T05:41:22.265Z,49.13
2022-10-19T05:43:52.741Z,48.91
2022-10-19T05:46:19.121Z,48.95
2022-10-19T05:48:46.314Z,48.76
2022-10-19T05:51:13.583Z,48.90
2022-10-19T05:53:40.782Z,48.64
2022-10-19T05:56:08.063Z,48.60
2022-10-19T05:58:35.031Z,49.01
2022-10-19T06:01:01.991Z,48.82
2022-10-19T06:03:28.628Z,49.00
2022-10-19T06:05:55.492Z,48.90
2022-10-19T06:08:22.857Z,49.16
2022-10-19T06:10:49.561Z,48.92
2022-10-19T06:13:16.885Z,49.09
2022-10-19T06:15:43.566Z,49.59
2022-10-19T06:18:11.220Z,49.36
2022-10-19T06:20:38.842Z,49.86
2022-10-19T06:23:05.705Z,49.88
2022-10-19T06:25:32.586Z,49.86
2022-10-19T06:27:59.662Z,49.91
2022-10-19T06:30:26.607Z,50.17
2022-10-19T06:32:53.327Z,50.28
2022-10-19T06:35:20.127Z,50.28
2022-10-19T06:37:46.547Z,50.25
2022-10-19T06:40:13.085Z,50.34
2022-10-19T06:42:39.501Z,50.47
2022-10-19T06:45:09.859Z,50.95
2022-10-19T06:47:37.243Z,50.61
2022-10-19T06:50:05.017Z,51.06
2022-10-19T06:52:32.112Z,50.98
2022-10-19T06:55:00.091Z,50.91
2022-10-19T06:57:26.522Z,51.31
2022-10-19T06:59:53.737Z,51.05
2022-10-19T07:02:20.238Z,51.26
2022-10-19T07:04:46.590Z,51.63
2022-10-19T07:07:12.984Z,51.42
2022-10-19T07:09:39.355Z,51.45
2022-10-19T07:12:05.841Z,51.56
2022-10-19T07:14:38.534Z,51.82
2022-10-19T07:17:07.678Z,51.79
2022-10-19T07:19:34.385Z,51.85
2022-10-19T07:22:00.834Z,51.63
2022-10-19T07:24:27.230Z,51.98
2022-10-19T07:26:53.577Z,52.05
2022-10-19T07:29:19.965Z,51.71
2022-10-19T07:31:46.334Z,52.07
2022-10-19T07:34:13.889Z,51.72
2022-10-19T07:36:44.765Z,51.91
2022-10-19T07:39:12.526Z,51.99
2022-10-19T07:41:38.988Z,52.09
2022-10-19T07:44:05.354Z,52.22
2022-10-19T07:46:37.030Z,52.25
2022-10-19T07:49:04.439Z,52.32
2022-10-19T07:51:30.788Z,52.01
2022-10-19T07:54:00.139Z,52.01
2022-10-19T07:56:27.305Z,52.18
2022-10-19T07:58:54.712Z,52.47
2022-10-19T08:01:25.190Z,52.37
2022-10-19T08:06:38.863Z,52.25
2022-10-19T08:09:05.387Z,52.49
2022-10-19T08:11:32.824Z,52.46
2022-10-19T08:13:59.386Z,52.56
2022-10-19T08:16:27.565Z,52.55
2022-10-19T08:18:56.508Z,52.39
2022-10-19T08:21:22.959Z,52.21
2022-10-19T08:23:49.387Z,52.16
2022-10-19T08:26:15.727Z,52.24
2022-10-19T08:28:42.074Z,52.13
2022-10-19T08:31:19.280Z,52.08
2022-10-19T08:33:45.894Z,52.23
2022-10-19T08:36:13.208Z,51.97
2022-10-19T08:38:40.347Z,51.92
2022-10-19T08:41:18.280Z,52.23
2022-10-19T08:43:55.459Z,51.70
2022-10-19T08:46:30.090Z,51.83
2022-10-19T08:48:56.456Z,51.58
2022-10-19T08:51:23.069Z,51.34
2022-10-19T08:53:53.593Z,51.29
2022-10-19T08:56:45.941Z,51.45
2022-10-19T08:59:15.195Z,51.23
2022-10-19T09:01:44.691Z,51.15
2022-10-19T09:04:14.161Z,51.20
2022-10-19T09:06:48.570Z,51.24
2022-10-19T09:09:15.278Z,51.19
2022-10-19T09:11:47.350Z,50.73
2022-10-19T09:14:36.361Z,50.72
2022-10-19T09:17:04.076Z,50.81
2022-10-19T09:19:31.968Z,50.51
2022-10-19T09:22:07.765Z,50.30
2022-10-19T09:24:39.320Z,50.40
2022-10-19T09:27:06.011Z,50.67
2022-10-19T09:29:41.400Z,51.46
2022-10-19T09:32:15.694Z,51.86
2022-10-19T09:34:45.214Z,51.67
2022-10-19T09:37:18.837Z,51.78
2022-10-19T09:39:53.964Z,51.56
2022-10-19T09:42:21.870Z,51.18
2022-10-19T09:44:50.161Z,50.83
2022-10-19T09:47:16.559Z,50.38
2022-10-19T09:49:44.468Z,49.99
2022-10-19T09:52:23.294Z,49.16
2022-10-19T09:55:12.986Z,48.93
2022-10-19T09:57:42.944Z,48.94
2022-10-19T10:00:18.789Z,48.97
2022-10-19T10:02:55.625Z,48.91
2022-10-19T10:05:38.802Z,49.12
2022-10-19T10:08:12.434Z,49.13
2022-10-19T10:10:42.486Z,49.16
2022-10-19T10:13:16.890Z,49.47
2022-10-19T10:15:44.398Z,49.38
2022-10-19T10:18:14.246Z,49.29
2022-10-19T10:20:55.296Z,49.01
2022-10-19T10:23:23.862Z,48.71
2022-10-19T10:25:50.213Z,48.43
2022-10-19T10:28:21.188Z,48.02
2022-10-19T10:30:48.725Z,47.87
2022-10-19T10:33:43.844Z,48.16
2022-10-19T10:36:11.411Z,48.14
2022-10-19T10:38:45.646Z,48.26
2022-10-19T10:41:11.977Z,47.98
2022-10-19T10:43:48.927Z,47.94
2022-10-19T10:46:17.073Z,47.76
2022-10-19T10:48:44.794Z,47.89
2022-10-19T10:51:22.994Z,47.92
2022-10-19T10:53:49.505Z,47.58
2022-10-19T10:56:24.203Z,47.58
2022-10-19T10:59:02.547Z,48.01
2022-10-19T11:01:32.872Z,47.85
2022-10-19T11:04:01.246Z,47.71
2022-10-19T11:06:27.647Z,47.70
2022-10-19T11:09:01.807Z,47.75
2022-10-19T11:11:32.878Z,48.01
2022-10-19T11:14:04.562Z,48.08
2022-10-19T11:16:38.590Z,47.82
2022-10-19T11:22:21.310Z,48.03
2022-10-19T11:25:09.107Z,47.71
2022-10-19T11:27:47.634Z,47.82
2022-10-19T11:30:16.940Z,47.76
2022-10-19T11:32:46.095Z,47.57
2022-10-19T11:35:30.966Z,47.60
2022-10-19T11:38:20.855Z,47.65
2022-10-19T11:43:41.515Z,48.00
2022-10-19T11:46:17.052Z,47.75
2022-10-19T11:49:03.282Z,47.83
2022-10-19T11:51:49.803Z,47.56
2022-10-19T11:54:25.023Z,47.08
2022-10-19T11:57:04.077Z,46.88
2022-10-19T11:59:50.176Z,46.91
2022-10-19T12:02:16.652Z,46.74
2022-10-19T12:05:04.584Z,46.84
2022-10-19T12:07:34.048Z,47.04
2022-10-19T12:10:03.391Z,46.35
2022-10-19T12:12:30.905Z,46.24
2022-10-19T12:15:03.127Z,45.93
2022-10-19T12:17:31.386Z,46.36
2022-10-19T12:20:03.236Z,46.41
2022-10-19T12:22:30.180Z,46.02
2022-10-19T12:24:58.619Z,46.02
2022-10-19T12:27:29.823Z,46.32
2022-10-19T12:29:58.391Z,46.43
2022-10-19T12:32:25.002Z,46.25
2022-10-19T12:35:07.609Z,46.66
2022-10-19T12:37:52.940Z,46.50
2022-10-19T12:40:26.052Z,46.54
2022-10-19T12:43:10.622Z,46.67
2022-10-19T12:45:41.396Z,46.22
2022-10-19T12:48:20.121Z,46.47
2022-10-19T12:50:49.319Z,46.66
2022-10-19T12:53:30.927Z,46.37
2022-10-19T12:56:09.925Z,46.35
2022-10-19T12:58:36.264Z,46.83
2022-10-19T13:01:05.237Z,46.73
2022-10-19T13:03:36.821Z,46.62
2022-10-19T13:06:11.005Z,46.49
2022-10-19T13:08:52.657Z,46.35
2022-10-19T13:11:19.682Z,46.31
2022-10-19T13:13:57.359Z,46.35
2022-10-19T13:16:29.723Z,46.46
2022-10-19T13:18:58.927Z,46.07
2022-10-19T13:21:45.639Z,46.38
2022-10-19T13:24:24.166Z,46.28
2022-10-19T13:27:02.631Z,46.07
2022-10-19T13:29:49.277Z,46.27
2022-10-19T13:32:30.924Z,46.57
2022-10-19T13:35:15.958Z,46.27
2022-10-19T13:37:43.213Z,46.33
2022-10-19T13:40:23.741Z,46.05
2022-10-19T13:42:57.904Z,45.79
2022-10-19T13:45:25.072Z,45.77
2022-10-19T13:47:55.198Z,45.94
2022-10-19T13:50:27.571Z,45.98
2022-10-19T13:53:17.553Z,46.09
2022-10-19T13:55:47.476Z,45.91
2022-10-19T13:58:31.042Z,46.10
2022-10-19T14:01:06.524Z,46.02
2022-10-19T14:03:51.244Z,45.71
2022-10-19T14:06:27.507Z,45.62
2022-10-19T14:08:55.053Z,46.32
2022-10-19T14:11:36.412Z,46.08
2022-10-19T14:14:11.756Z,46.29
2022-10-19T14:16:50.536Z,46.66
2022-10-19T14:19:28.912Z,46.64
2022-10-19T14:22:00.001Z,46.69
2022-10-19T14:24:31.969Z,46.20
2022-10-19T14:27:05.988Z,46.48
2022-10-19T14:29:35.871Z,46.06
2022-10-19T14:32:02.352Z,46.11
2022-10-19T14:34:28.780Z,46.39
2022-10-19T14:36:55.860Z,46.28
2022-10-19T14:39:32.719Z,46.30
2022-10-19T14:42:06.194Z,46.36
2022-10-19T14:44:38.490Z,45.98
2022-10-19T14:47:24.001Z,46.28
2022-10-19T14:49:50.775Z,45.70
2022-10-19T14:52:22.831Z,45.73
2022-10-19T14:54:50.692Z,45.41
2022-10-19T14:57:20.416Z,45.30
2022-10-19T14:59:49.927Z,45.55
2022-10-19T15:02:19.433Z,45.39
2022-10-19T15:04:46.423Z,45.36
2022-10-19T15:07:18.812Z,45.15
2022-10-19T15:09:49.866Z,44.84
2022-10-19T15:12:18.089Z,44.94
2022-10-19T15:14:45.729Z,45.10
2022-10-19T15:17:24.233Z,45.02
2022-10-19T15:19:51.389Z,44.77
2022-10-19T15:22:22.573Z,44.95
2022-10-19T15:24:55.582Z,45.13
2022-10-19T15:27:23.229Z,45.17
2022-10-19T15:29:56.822Z,45.20
2022-10-19T15:32:24.597Z,44.72
2022-10-19T15:34:51.224Z,44.87
2022-10-19T15:37:20.357Z,45.13
2022-10-19T15:39:47.269Z,44.99
2022-10-19T15:42:37.364Z,45.27
2022-10-19T15:45:04.997Z,45.16
2022-10-19T15:47:31.545Z,44.81
2022-10-19T15:50:00.037Z,45.15
2022-10-19T15:52:28.089Z,44.78
2022-10-19T15:54:56.052Z,45.05
2022-10-19T15:57:31.595Z,44.98
2022-10-19T15:59:59.078Z,44.96
2022-10-19T16:02:25.906Z,45.05
2022-10-19T16:04:53.678Z,44.69
2022-10-19T16:07:24.746Z,45.02
2022-10-19T16:09:51.346Z,44.88
2022-10-19T16:12:17.707Z,45.02
2022-10-19T16:14:44.052Z,44.95
2022-10-19T16:17:13.082Z,45.03
2022-10-19T16:19:39.457Z,44.93
2022-10-19T16:22:05.878Z,45.32
2022-10-19T20:11:51.060Z,48.93
2022-10-19T20:14:18.811Z,48.99
2022-10-19T20:16:45.243Z,48.89
2022-10-19T20:19:13.287Z,48.65
2022-10-19T20:21:40.495Z,48.99
2022-10-19T20:24:07.502Z,48.90
2022-10-19T20:26:34.200Z,48.85
2022-10-19T20:29:01.984Z,49.05
2022-10-19T20:31:29.497Z,48.86
2022-10-19T20:33:55.832Z,48.87
2022-10-19T20:36:24.013Z,49.01
2022-10-19T20:38:57.837Z,49.26
2022-10-19T20:41:25.225Z,48.95
2022-10-19T20:43:51.866Z,48.99
2022-10-19T20:46:21.148Z,49.30
2022-10-19T20:48:47.912Z,49.29
2022-10-19T20:51:15.915Z,49.40
2022-10-19T20:53:43.634Z,49.21
2022-10-19T20:56:10.598Z,49.35
2022-10-19T20:58:40.254Z,49.12
2022-10-19T21:01:11.204Z,49.43
2022-10-19T21:03:37.660Z,49.34
2022-10-19T21:06:05.468Z,49.42
2022-10-19T21:08:33.152Z,49.31
2022-10-19T21:10:59.558Z,49.10
2022-10-19T21:13:26.267Z,49.08
2022-10-19T21:15:52.669Z,49.41
2022-10-19T21:18:19.164Z,49.32
2022-10-19T21:20:45.557Z,49.08
2022-10-19T21:23:11.964Z,49.28
2022-10-19T21:25:38.312Z,49.05
2022-10-19T21:28:04.753Z,49.45
2022-10-19T21:30:31.326Z,49.28
2022-10-19T21:32:58.421Z,49.48
2022-10-19T21:35:24.744Z,49.49
2022-10-19T21:37:51.236Z,49.48
2022-10-19T21:40:17.589Z,49.16
2022-10-19T21:42:45.089Z,49.29
2022-10-19T21:45:29.060Z,49.13
2022-10-19T21:47:56.476Z,49.38
2022-10-19T21:50:22.823Z,49.14
2022-10-19T21:52:49.168Z,49.50
2022-10-19T21:55:15.580Z,49.38
2022-10-19T21:57:41.975Z,49.42
2022-10-19T22:00:08.601Z,49.04
2022-10-19T22:02:34.927Z,49.14
2022-10-19T22:05:01.531Z,49.44
2022-10-19T22:07:27.864Z,49.29
2022-10-19T22:09:54.968Z,49.24
2022-10-19T22:12:21.518Z,49.33
2022-10-19T22:14:47.947Z,49.28
2022-10-19T22:17:14.296Z,49.25
2022-10-19T22:19:40.623Z,49.48
2022-10-19T22:22:06.984Z,49.62
2022-10-19T22:24:34.760Z,49.42
2022-10-19T22:27:03.626Z,49.65
2022-10-19T22:29:32.383Z,49.78
2022-10-19T22:31:58.781Z,49.83
2022-10-19T22:34:25.164Z,49.78
2022-10-19T22:36:51.494Z,49.56
2022-10-19T22:39:17.939Z,49.90
2022-10-19T22:41:44.390Z,49.87
2022-10-19T22:44:10.741Z,49.73
2022-10-19T22:46:37.089Z,49.87
2022-10-19T22:49:03.569Z,49.98
2022-10-19T22:51:29.996Z,49.85
2022-10-19T22:53:56.489Z,49.79
2022-10-19T22:56:26.248Z,49.60
2022-10-19T22:58:52.629Z,49.68
2022-10-19T23:01:19.491Z,49.84
2022-10-19T23:03:45.982Z,50.01
2022-10-19T23:06:13.943Z,49.71
2022-10-19T23:08:40.334Z,49.88
2022-10-19T23:11:07.225Z,49.84
2022-10-19T23:13:33.653Z,49.88
2022-10-19T23:16:00.019Z,49.68
2022-10-19T23:18:26.370Z,49.81
2022-10-19T23:20:59.733Z,49.95
2022-10-19T23:23:26.654Z,50.05
2022-10-19T23:26:04.104Z,49.78
2022-10-19T23:28:31.054Z,49.83
2022-10-19T23:30:58.540Z,49.92
2022-10-19T23:33:25.726Z,49.89
2022-10-19T23:35:54.482Z,50.08
2022-10-19T23:38:20.858Z,50.03
2022-10-19T23:40:49.362Z,49.84
2022-10-19T23:43:15.762Z,49.82
2022-10-19T23:45:42.088Z,49.80
2022-10-19T23:48:08.498Z,49.48
2022-10-19T23:50:34.898Z,49.73
2022-10-19T23:53:01.247Z,49.66
2022-10-19T23:55:27.598Z,49.66
2022-10-19T23:57:53.963Z,49.52
